Ribarroja, Spain
Current Conditions -  °F | °C
As of 6:00 PM on Friday 24 Oct 2014 (Local Time) from LEVC Reporting Station
Clear Clear  
Wind Chill: 79°   Ceiling: Unl
Heat Index: 79°   Visibility: 6mi
Dew Point: 46°   Wind: 9mph
Humidity: 32%   Direction: 130°SE
Pressure: 29.97"   Gusts: NA
Location:  39.55°N, 0.57°W
Report Text: LEVC 241600Z 13008KT CAVOK 26/08 Q1015 NOSIG
Loading
Personal Weather Stations






























Interactive Weather Map
Tropical Storm Tracking
New forecast layout! Learn more

10-Day Weather Forecast

Advertisements
Track Severe Weather on mobile